sensor_id;sensor_type;location;lat;lon;timestamp;temperature;humidity
57566;DHT22;63999;43.882;-0.310;2024-01-30T00:01:10;12.30;97.40
57566;DHT22;63999;43.882;-0.310;2024-01-30T00:03:38;12.30;97.40
57566;DHT22;63999;43.882;-0.310;2024-01-30T00:06:05;12.30;97.40
57566;DHT22;63999;43.882;-0.310;2024-01-30T00:08:32;12.20;97.40
57566;DHT22;63999;43.882;-0.310;2024-01-30T00:11:00;12.30;97.40
57566;DHT22;63999;43.882;-0.310;2024-01-30T00:13:27;12.20;97.30
57566;DHT22;63999;43.882;-0.310;2024-01-30T00:15:54;12.20;97.30
57566;DHT22;63999;43.882;-0.310;2024-01-30T00:18:21;12.20;97.20
57566;DHT22;63999;43.882;-0.310;2024-01-30T00:20:48;12.20;97.20
57566;DHT22;63999;43.882;-0.310;2024-01-30T00:23:16;12.20;97.20
57566;DHT22;63999;43.882;-0.310;2024-01-30T00:25:43;12.10;97.20
57566;DHT22;63999;43.882;-0.310;2024-01-30T00:28:10;12.10;97.20
57566;DHT22;63999;43.882;-0.310;2024-01-30T00:30:37;12.10;97.20
57566;DHT22;63999;43.882;-0.310;2024-01-30T00:33:04;12.20;97.30
57566;DHT22;63999;43.882;-0.310;2024-01-30T00:35:31;12.10;97.10
57566;DHT22;63999;43.882;-0.310;2024-01-30T00:37:58;12.10;97.10
57566;DHT22;63999;43.882;-0.310;2024-01-30T00:40:26;12.10;97.20
57566;DHT22;63999;43.882;-0.310;2024-01-30T00:42:53;12.10;97.10
57566;DHT22;63999;43.882;-0.310;2024-01-30T00:45:20;12.10;97.20
57566;DHT22;63999;43.882;-0.310;2024-01-30T00:47:47;12.10;97.20
57566;DHT22;63999;43.882;-0.310;2024-01-30T00:50:15;12.10;97.00
57566;DHT22;63999;43.882;-0.310;2024-01-30T00:52:42;12.10;97.10
57566;DHT22;63999;43.882;-0.310;2024-01-30T00:55:12;12.10;97.00
57566;DHT22;63999;43.882;-0.310;2024-01-30T00:57:40;12.10;97.10
57566;DHT22;63999;43.882;-0.310;2024-01-30T01:00:11;12.10;97.00
57566;DHT22;63999;43.882;-0.310;2024-01-30T01:02:39;12.10;97.10
57566;DHT22;63999;43.882;-0.310;2024-01-30T01:05:07;12.10;97.00
57566;DHT22;63999;43.882;-0.310;2024-01-30T01:07:34;12.10;97.10
57566;DHT22;63999;43.882;-0.310;2024-01-30T01:10:01;12.10;97.10
57566;DHT22;63999;43.882;-0.310;2024-01-30T01:12:29;12.10;97.00
57566;DHT22;63999;43.882;-0.310;2024-01-30T01:14:56;12.10;97.10
57566;DHT22;63999;43.882;-0.310;2024-01-30T01:17:24;12.10;97.10
57566;DHT22;63999;43.882;-0.310;2024-01-30T01:19:52;12.10;97.00
57566;DHT22;63999;43.882;-0.310;2024-01-30T01:22:19;12.10;97.10
57566;DHT22;63999;43.882;-0.310;2024-01-30T01:24:46;12.10;97.00
57566;DHT22;63999;43.882;-0.310;2024-01-30T01:27:13;12.10;97.00
57566;DHT22;63999;43.882;-0.310;2024-01-30T01:29:41;12.00;96.90
57566;DHT22;63999;43.882;-0.310;2024-01-30T01:32:08;12.00;96.80
57566;DHT22;63999;43.882;-0.310;2024-01-30T01:34:35;12.00;96.80
57566;DHT22;63999;43.882;-0.310;2024-01-30T01:37:02;12.00;96.90
57566;DHT22;63999;43.882;-0.310;2024-01-30T01:39:29;12.00;96.90
57566;DHT22;63999;43.882;-0.310;2024-01-30T01:41:56;12.00;97.00
57566;DHT22;63999;43.882;-0.310;2024-01-30T01:44:23;12.00;96.80
57566;DHT22;63999;43.882;-0.310;2024-01-30T01:46:51;12.00;96.80
57566;DHT22;63999;43.882;-0.310;2024-01-30T01:49:20;12.00;96.80
57566;DHT22;63999;43.882;-0.310;2024-01-30T01:51:48;12.00;96.80
57566;DHT22;63999;43.882;-0.310;2024-01-30T01:54:16;11.90;96.70
57566;DHT22;63999;43.882;-0.310;2024-01-30T01:56:43;11.90;96.60
57566;DHT22;63999;43.882;-0.310;2024-01-30T01:59:10;11.90;96.70
57566;DHT22;63999;43.882;-0.310;2024-01-30T02:01:38;11.90;96.70
57566;DHT22;63999;43.882;-0.310;2024-01-30T02:04:06;11.90;96.60
57566;DHT22;63999;43.882;-0.310;2024-01-30T02:06:34;11.90;96.60
57566;DHT22;63999;43.882;-0.310;2024-01-30T02:09:02;11.90;96.60
57566;DHT22;63999;43.882;-0.310;2024-01-30T02:11:29;11.90;96.60
57566;DHT22;63999;43.882;-0.310;2024-01-30T02:13:56;11.90;96.50
57566;DHT22;63999;43.882;-0.310;2024-01-30T02:16:23;11.90;96.40
57566;DHT22;63999;43.882;-0.310;2024-01-30T02:18:50;11.80;96.30
57566;DHT22;63999;43.882;-0.310;2024-01-30T02:21:18;11.70;96.40
57566;DHT22;63999;43.882;-0.310;2024-01-30T02:23:49;11.70;96.30
57566;DHT22;63999;43.882;-0.310;2024-01-30T02:26:17;11.70;96.40
57566;DHT22;63999;43.882;-0.310;2024-01-30T02:28:44;11.70;96.40
57566;DHT22;63999;43.882;-0.310;2024-01-30T02:31:11;11.70;96.50
57566;DHT22;63999;43.882;-0.310;2024-01-30T02:33:38;11.70;96.50
57566;DHT22;63999;43.882;-0.310;2024-01-30T02:36:06;11.70;96.60
57566;DHT22;63999;43.882;-0.310;2024-01-30T02:38:33;11.70;96.60
57566;DHT22;63999;43.882;-0.310;2024-01-30T02:41:00;11.70;96.50
57566;DHT22;63999;43.882;-0.310;2024-01-30T02:43:27;11.80;96.50
57566;DHT22;63999;43.882;-0.310;2024-01-30T02:45:54;11.70;96.40
57566;DHT22;63999;43.882;-0.310;2024-01-30T02:48:21;11.70;96.40
57566;DHT22;63999;43.882;-0.310;2024-01-30T02:50:48;11.70;96.50
57566;DHT22;63999;43.882;-0.310;2024-01-30T02:53:15;11.70;96.50
57566;DHT22;63999;43.882;-0.310;2024-01-30T02:55:42;11.70;96.50
57566;DHT22;63999;43.882;-0.310;2024-01-30T02:58:09;11.70;96.40
57566;DHT22;63999;43.882;-0.310;2024-01-30T03:00:36;11.70;96.40
57566;DHT22;63999;43.882;-0.310;2024-01-30T03:03:04;11.70;96.30
57566;DHT22;63999;43.882;-0.310;2024-01-30T03:05:31;11.70;96.20
57566;DHT22;63999;43.882;-0.310;2024-01-30T03:07:58;11.70;96.10
57566;DHT22;63999;43.882;-0.310;2024-01-30T03:10:25;11.70;96.10
57566;DHT22;63999;43.882;-0.310;2024-01-30T03:12:52;11.60;96.10
57566;DHT22;63999;43.882;-0.310;2024-01-30T03:15:19;11.60;96.20
57566;DHT22;63999;43.882;-0.310;2024-01-30T03:17:46;11.60;96.10
57566;DHT22;63999;43.882;-0.310;2024-01-30T03:20:13;11.50;96.10
57566;DHT22;63999;43.882;-0.310;2024-01-30T03:22:40;11.50;96.10
57566;DHT22;63999;43.882;-0.310;2024-01-30T03:25:07;11.50;96.10
57566;DHT22;63999;43.882;-0.310;2024-01-30T03:27:34;11.50;96.10
57566;DHT22;63999;43.882;-0.310;2024-01-30T03:30:01;11.50;96.10
57566;DHT22;63999;43.882;-0.310;2024-01-30T03:32:28;11.50;96.00
57566;DHT22;63999;43.882;-0.310;2024-01-30T03:34:56;11.50;96.00
57566;DHT22;63999;43.882;-0.310;2024-01-30T03:37:23;11.50;96.00
57566;DHT22;63999;43.882;-0.310;2024-01-30T03:39:50;11.50;95.80
57566;DHT22;63999;43.882;-0.310;2024-01-30T03:42:18;11.50;95.90
57566;DHT22;63999;43.882;-0.310;2024-01-30T03:44:45;11.50;95.90
57566;DHT22;63999;43.882;-0.310;2024-01-30T03:47:12;11.40;95.90
57566;DHT22;63999;43.882;-0.310;2024-01-30T03:49:38;11.40;95.80
57566;DHT22;63999;43.882;-0.310;2024-01-30T03:52:06;11.40;95.80
57566;DHT22;63999;43.882;-0.310;2024-01-30T03:54:32;11.40;95.80
57566;DHT22;63999;43.882;-0.310;2024-01-30T03:56:59;11.40;95.80
57566;DHT22;63999;43.882;-0.310;2024-01-30T03:59:26;11.40;95.80
57566;DHT22;63999;43.882;-0.310;2024-01-30T04:01:54;11.40;95.90
57566;DHT22;63999;43.882;-0.310;2024-01-30T04:04:21;11.40;95.80
57566;DHT22;63999;43.882;-0.310;2024-01-30T04:06:48;11.40;95.80
57566;DHT22;63999;43.882;-0.310;2024-01-30T04:09:15;11.40;95.80
57566;DHT22;63999;43.882;-0.310;2024-01-30T04:11:42;11.40;95.80
57566;DHT22;63999;43.882;-0.310;2024-01-30T04:14:10;11.40;95.80
57566;DHT22;63999;43.882;-0.310;2024-01-30T04:16:37;11.30;95.70
57566;DHT22;63999;43.882;-0.310;2024-01-30T04:19:04;11.30;95.60
57566;DHT22;63999;43.882;-0.310;2024-01-30T04:21:31;11.30;95.70
57566;DHT22;63999;43.882;-0.310;2024-01-30T04:23:58;11.30;95.70
57566;DHT22;63999;43.882;-0.310;2024-01-30T04:26:25;11.30;95.70
57566;DHT22;63999;43.882;-0.310;2024-01-30T04:28:52;11.30;95.60
57566;DHT22;63999;43.882;-0.310;2024-01-30T04:31:19;11.30;95.70
57566;DHT22;63999;43.882;-0.310;2024-01-30T04:33:46;11.30;95.70
57566;DHT22;63999;43.882;-0.310;2024-01-30T04:36:13;11.30;95.70
57566;DHT22;63999;43.882;-0.310;2024-01-30T04:38:40;11.20;95.50
57566;DHT22;63999;43.882;-0.310;2024-01-30T04:41:07;11.20;95.50
57566;DHT22;63999;43.882;-0.310;2024-01-30T04:43:34;11.20;95.60
57566;DHT22;63999;43.882;-0.310;2024-01-30T04:46:01;11.20;95.50
57566;DHT22;63999;43.882;-0.310;2024-01-30T04:48:28;11.20;95.40
57566;DHT22;63999;43.882;-0.310;2024-01-30T04:50:56;11.10;95.50
57566;DHT22;63999;43.882;-0.310;2024-01-30T04:53:23;11.10;95.50
57566;DHT22;63999;43.882;-0.310;2024-01-30T04:55:50;11.10;95.50
57566;DHT22;63999;43.882;-0.310;2024-01-30T04:58:17;11.10;95.40
57566;DHT22;63999;43.882;-0.310;2024-01-30T05:00:44;11.10;95.50
57566;DHT22;63999;43.882;-0.310;2024-01-30T05:03:13;11.10;95.40
57566;DHT22;63999;43.882;-0.310;2024-01-30T05:05:40;11.10;95.40
57566;DHT22;63999;43.882;-0.310;2024-01-30T05:08:07;11.10;95.40
57566;DHT22;63999;43.882;-0.310;2024-01-30T05:10:34;11.10;95.40
57566;DHT22;63999;43.882;-0.310;2024-01-30T05:13:01;11.10;95.50
57566;DHT22;63999;43.882;-0.310;2024-01-30T05:15:28;11.10;95.40
57566;DHT22;63999;43.882;-0.310;2024-01-30T05:17:55;11.10;95.30
57566;DHT22;63999;43.882;-0.310;2024-01-30T05:20:22;11.10;95.30
57566;DHT22;63999;43.882;-0.310;2024-01-30T05:22:49;11.00;95.30
57566;DHT22;63999;43.882;-0.310;2024-01-30T05:25:16;11.00;95.40
57566;DHT22;63999;43.882;-0.310;2024-01-30T05:27:43;11.10;95.40
57566;DHT22;63999;43.882;-0.310;2024-01-30T05:30:11;11.00;95.30
57566;DHT22;63999;43.882;-0.310;2024-01-30T05:32:38;11.00;95.40
57566;DHT22;63999;43.882;-0.310;2024-01-30T05:35:05;11.10;95.40
57566;DHT22;63999;43.882;-0.310;2024-01-30T05:37:34;11.00;95.40
57566;DHT22;63999;43.882;-0.310;2024-01-30T05:40:01;11.00;95.30
57566;DHT22;63999;43.882;-0.310;2024-01-30T05:42:28;11.00;95.30
57566;DHT22;63999;43.882;-0.310;2024-01-30T05:44:55;11.00;95.30
57566;DHT22;63999;43.882;-0.310;2024-01-30T05:47:22;11.00;95.20
57566;DHT22;63999;43.882;-0.310;2024-01-30T05:49:49;11.00;95.30
57566;DHT22;63999;43.882;-0.310;2024-01-30T05:52:16;11.00;95.30
57566;DHT22;63999;43.882;-0.310;2024-01-30T05:54:45;11.00;95.20
57566;DHT22;63999;43.882;-0.310;2024-01-30T05:57:12;11.00;95.30
57566;DHT22;63999;43.882;-0.310;2024-01-30T05:59:39;10.90;95.20
57566;DHT22;63999;43.882;-0.310;2024-01-30T06:02:08;10.90;95.20
57566;DHT22;63999;43.882;-0.310;2024-01-30T06:04:35;10.90;95.30
57566;DHT22;63999;43.882;-0.310;2024-01-30T06:07:02;10.90;95.20
57566;DHT22;63999;43.882;-0.310;2024-01-30T06:09:30;10.90;95.20
57566;DHT22;63999;43.882;-0.310;2024-01-30T06:11:57;10.90;95.20
57566;DHT22;63999;43.882;-0.310;2024-01-30T06:14:24;10.90;95.10
57566;DHT22;63999;43.882;-0.310;2024-01-30T06:16:51;10.90;95.10
57566;DHT22;63999;43.882;-0.310;2024-01-30T06:19:18;10.90;95.10
57566;DHT22;63999;43.882;-0.310;2024-01-30T06:21:45;10.80;95.00
57566;DHT22;63999;43.882;-0.310;2024-01-30T06:24:12;10.80;95.10
57566;DHT22;63999;43.882;-0.310;2024-01-30T06:26:39;10.80;95.10
57566;DHT22;63999;43.882;-0.310;2024-01-30T06:29:06;10.80;95.10
57566;DHT22;63999;43.882;-0.310;2024-01-30T06:31:40;10.80;95.10
57566;DHT22;63999;43.882;-0.310;2024-01-30T06:34:09;10.80;95.10
57566;DHT22;63999;43.882;-0.310;2024-01-30T06:36:36;10.80;95.10
57566;DHT22;63999;43.882;-0.310;2024-01-30T06:39:04;10.80;95.10
57566;DHT22;63999;43.882;-0.310;2024-01-30T06:41:31;10.80;95.00
57566;DHT22;63999;43.882;-0.310;2024-01-30T06:43:58;10.80;95.00
57566;DHT22;63999;43.882;-0.310;2024-01-30T06:46:25;10.80;95.00
57566;DHT22;63999;43.882;-0.310;2024-01-30T06:48:52;10.80;94.90
57566;DHT22;63999;43.882;-0.310;2024-01-30T06:51:19;10.80;95.00
57566;DHT22;63999;43.882;-0.310;2024-01-30T06:53:46;10.70;95.10
57566;DHT22;63999;43.882;-0.310;2024-01-30T06:56:13;10.70;94.90
57566;DHT22;63999;43.882;-0.310;2024-01-30T06:58:40;10.70;95.00
57566;DHT22;63999;43.882;-0.310;2024-01-30T07:01:07;10.70;94.90
57566;DHT22;63999;43.882;-0.310;2024-01-30T07:03:34;10.70;94.90
57566;DHT22;63999;43.882;-0.310;2024-01-30T07:06:01;10.70;94.90
57566;DHT22;63999;43.882;-0.310;2024-01-30T07:08:28;10.70;94.90
57566;DHT22;63999;43.882;-0.310;2024-01-30T07:10:55;10.70;94.90
57566;DHT22;63999;43.882;-0.310;2024-01-30T07:13:27;10.70;94.90
57566;DHT22;63999;43.882;-0.310;2024-01-30T07:15:55;10.70;94.90
57566;DHT22;63999;43.882;-0.310;2024-01-30T07:18:22;10.70;94.90
57566;DHT22;63999;43.882;-0.310;2024-01-30T07:20:49;10.60;94.80
57566;DHT22;63999;43.882;-0.310;2024-01-30T07:23:17;10.70;94.90
57566;DHT22;63999;43.882;-0.310;2024-01-30T07:25:44;10.60;94.80
57566;DHT22;63999;43.882;-0.310;2024-01-30T07:28:14;10.60;94.80
57566;DHT22;63999;43.882;-0.310;2024-01-30T07:30:44;10.60;94.80
57566;DHT22;63999;43.882;-0.310;2024-01-30T07:33:12;10.60;94.90
57566;DHT22;63999;43.882;-0.310;2024-01-30T07:35:39;10.60;94.70
57566;DHT22;63999;43.882;-0.310;2024-01-30T07:38:07;10.60;94.70
57566;DHT22;63999;43.882;-0.310;2024-01-30T07:40:34;10.50;94.60
57566;DHT22;63999;43.882;-0.310;2024-01-30T07:43:01;10.50;94.70
57566;DHT22;63999;43.882;-0.310;2024-01-30T07:45:30;10.50;94.60
57566;DHT22;63999;43.882;-0.310;2024-01-30T07:48:00;10.50;94.50
57566;DHT22;63999;43.882;-0.310;2024-01-30T07:50:27;10.50;94.50
57566;DHT22;63999;43.882;-0.310;2024-01-30T07:52:59;10.40;94.60
57566;DHT22;63999;43.882;-0.310;2024-01-30T07:55:26;10.40;94.50
57566;DHT22;63999;43.882;-0.310;2024-01-30T07:57:59;10.40;94.60
57566;DHT22;63999;43.882;-0.310;2024-01-30T08:00:27;10.40;94.50
57566;DHT22;63999;43.882;-0.310;2024-01-30T08:02:56;10.40;94.50
57566;DHT22;63999;43.882;-0.310;2024-01-30T08:05:23;10.40;94.50
57566;DHT22;63999;43.882;-0.310;2024-01-30T08:07:51;10.30;94.40
57566;DHT22;63999;43.882;-0.310;2024-01-30T08:10:18;10.40;94.60
57566;DHT22;63999;43.882;-0.310;2024-01-30T08:12:46;10.40;94.50
57566;DHT22;63999;43.882;-0.310;2024-01-30T08:15:13;10.30;94.50
57566;DHT22;63999;43.882;-0.310;2024-01-30T08:17:40;10.30;94.40
57566;DHT22;63999;43.882;-0.310;2024-01-30T08:20:08;10.30;94.40
57566;DHT22;63999;43.882;-0.310;2024-01-30T08:22:41;10.30;94.30
57566;DHT22;63999;43.882;-0.310;2024-01-30T08:25:08;10.30;94.40
57566;DHT22;63999;43.882;-0.310;2024-01-30T08:27:36;10.30;94.50
57566;DHT22;63999;43.882;-0.310;2024-01-30T08:30:06;10.30;94.60
57566;DHT22;63999;43.882;-0.310;2024-01-30T08:32:34;10.30;94.50
57566;DHT22;63999;43.882;-0.310;2024-01-30T08:35:01;10.30;94.50
57566;DHT22;63999;43.882;-0.310;2024-01-30T08:37:31;10.30;94.60
57566;DHT22;63999;43.882;-0.310;2024-01-30T08:39:58;10.30;94.60
57566;DHT22;63999;43.882;-0.310;2024-01-30T08:42:26;10.30;94.70
57566;DHT22;63999;43.882;-0.310;2024-01-30T08:44:53;10.40;94.70
57566;DHT22;63999;43.882;-0.310;2024-01-30T08:47:21;10.40;94.60
57566;DHT22;63999;43.882;-0.310;2024-01-30T08:49:48;10.40;94.70
57566;DHT22;63999;43.882;-0.310;2024-01-30T08:52:15;10.40;94.70
57566;DHT22;63999;43.882;-0.310;2024-01-30T08:54:42;10.40;94.80
57566;DHT22;63999;43.882;-0.310;2024-01-30T08:57:09;10.40;94.90
57566;DHT22;63999;43.882;-0.310;2024-01-30T08:59:36;10.50;95.10
57566;DHT22;63999;43.882;-0.310;2024-01-30T09:02:03;10.50;95.10
57566;DHT22;63999;43.882;-0.310;2024-01-30T09:04:39;10.50;95.10
57566;DHT22;63999;43.882;-0.310;2024-01-30T09:07:08;10.50;95.30
57566;DHT22;63999;43.882;-0.310;2024-01-30T09:09:41;10.60;95.30
57566;DHT22;63999;43.882;-0.310;2024-01-30T09:12:08;10.60;95.40
57566;DHT22;63999;43.882;-0.310;2024-01-30T09:14:39;10.60;95.50
57566;DHT22;63999;43.882;-0.310;2024-01-30T09:17:07;10.60;95.60
57566;DHT22;63999;43.882;-0.310;2024-01-30T09:19:35;10.70;95.70
57566;DHT22;63999;43.882;-0.310;2024-01-30T09:22:03;10.70;95.70
57566;DHT22;63999;43.882;-0.310;2024-01-30T09:24:30;10.80;95.80
57566;DHT22;63999;43.882;-0.310;2024-01-30T09:26:57;10.80;95.90
57566;DHT22;63999;43.882;-0.310;2024-01-30T09:29:25;10.80;95.90
57566;DHT22;63999;43.882;-0.310;2024-01-30T09:31:52;10.80;96.00
57566;DHT22;63999;43.882;-0.310;2024-01-30T09:34:19;10.90;96.20
57566;DHT22;63999;43.882;-0.310;2024-01-30T09:36:46;10.90;96.20
57566;DHT22;63999;43.882;-0.310;2024-01-30T09:39:13;11.00;96.30
57566;DHT22;63999;43.882;-0.310;2024-01-30T09:41:51;11.00;96.40
57566;DHT22;63999;43.882;-0.310;2024-01-30T09:44:23;11.10;96.50
57566;DHT22;63999;43.882;-0.310;2024-01-30T09:46:51;11.10;96.70
57566;DHT22;63999;43.882;-0.310;2024-01-30T09:49:19;11.10;97.00
57566;DHT22;63999;43.882;-0.310;2024-01-30T09:51:48;11.20;96.90
57566;DHT22;63999;43.882;-0.310;2024-01-30T09:54:15;11.20;97.00
57566;DHT22;63999;43.882;-0.310;2024-01-30T09:56:47;11.30;97.10
57566;DHT22;63999;43.882;-0.310;2024-01-30T09:59:14;11.30;97.20
57566;DHT22;63999;43.882;-0.310;2024-01-30T10:01:42;11.30;97.20
57566;DHT22;63999;43.882;-0.310;2024-01-30T10:04:10;11.40;97.40
57566;DHT22;63999;43.882;-0.310;2024-01-30T10:06:37;11.50;97.60
57566;DHT22;63999;43.882;-0.310;2024-01-30T10:09:05;11.50;97.60
57566;DHT22;63999;43.882;-0.310;2024-01-30T10:11:32;11.50;97.70
57566;DHT22;63999;43.882;-0.310;2024-01-30T10:14:00;11.50;97.60
57566;DHT22;63999;43.882;-0.310;2024-01-30T10:16:27;11.60;97.90
57566;DHT22;63999;43.882;-0.310;2024-01-30T10:18:55;11.70;98.20
57566;DHT22;63999;43.882;-0.310;2024-01-30T10:21:22;11.70;98.10
57566;DHT22;63999;43.882;-0.310;2024-01-30T10:23:49;11.70;98.00
57566;DHT22;63999;43.882;-0.310;2024-01-30T10:26:17;11.70;98.00
57566;DHT22;63999;43.882;-0.310;2024-01-30T10:28:44;11.80;98.00
57566;DHT22;63999;43.882;-0.310;2024-01-30T10:31:15;11.80;98.20
57566;DHT22;63999;43.882;-0.310;2024-01-30T10:33:44;11.80;98.20
57566;DHT22;63999;43.882;-0.310;2024-01-30T10:36:13;11.90;98.60
57566;DHT22;63999;43.882;-0.310;2024-01-30T10:38:47;11.90;98.60
57566;DHT22;63999;43.882;-0.310;2024-01-30T10:41:19;12.00;98.70
57566;DHT22;63999;43.882;-0.310;2024-01-30T10:44:02;12.00;98.80
57566;DHT22;63999;43.882;-0.310;2024-01-30T10:46:31;12.10;98.80
57566;DHT22;63999;43.882;-0.310;2024-01-30T10:48:59;12.10;98.70
57566;DHT22;63999;43.882;-0.310;2024-01-30T10:51:27;12.00;98.70
57566;DHT22;63999;43.882;-0.310;2024-01-30T10:53:56;12.10;99.00
57566;DHT22;63999;43.882;-0.310;2024-01-30T10:56:25;12.10;99.10
57566;DHT22;63999;43.882;-0.310;2024-01-30T10:58:53;12.10;99.10
57566;DHT22;63999;43.882;-0.310;2024-01-30T11:01:21;12.20;99.00
57566;DHT22;63999;43.882;-0.310;2024-01-30T11:03:52;12.20;99.10
57566;DHT22;63999;43.882;-0.310;2024-01-30T11:06:25;12.20;98.90
57566;DHT22;63999;43.882;-0.310;2024-01-30T11:09:02;12.20;98.90
57566;DHT22;63999;43.882;-0.310;2024-01-30T11:14:29;12.20;99.00
57566;DHT22;63999;43.882;-0.310;2024-01-30T11:16:59;12.20;99.00
57566;DHT22;63999;43.882;-0.310;2024-01-30T11:19:30;12.20;99.30
57566;DHT22;63999;43.882;-0.310;2024-01-30T11:21:57;12.20;99.20
57566;DHT22;63999;43.882;-0.310;2024-01-30T11:24:25;12.30;99.30
57566;DHT22;63999;43.882;-0.310;2024-01-30T11:26:57;12.30;99.20
57566;DHT22;63999;43.882;-0.310;2024-01-30T11:29:25;12.30;99.30
57566;DHT22;63999;43.882;-0.310;2024-01-30T11:31:54;12.30;99.30
57566;DHT22;63999;43.882;-0.310;2024-01-30T11:34:22;12.40;99.20
57566;DHT22;63999;43.882;-0.310;2024-01-30T11:36:58;12.40;99.50
57566;DHT22;63999;43.882;-0.310;2024-01-30T11:39:27;12.40;99.50
57566;DHT22;63999;43.882;-0.310;2024-01-30T11:41:54;12.50;99.50
57566;DHT22;63999;43.882;-0.310;2024-01-30T11:44:24;12.50;99.30
57566;DHT22;63999;43.882;-0.310;2024-01-30T11:46:52;12.50;99.20
57566;DHT22;63999;43.882;-0.310;2024-01-30T11:49:19;12.40;99.20
57566;DHT22;63999;43.882;-0.310;2024-01-30T11:51:47;12.30;99.20
57566;DHT22;63999;43.882;-0.310;2024-01-30T11:54:17;12.30;99.30
57566;DHT22;63999;43.882;-0.310;2024-01-30T11:56:44;12.30;99.30
57566;DHT22;63999;43.882;-0.310;2024-01-30T11:59:11;12.40;99.30
57566;DHT22;63999;43.882;-0.310;2024-01-30T12:01:38;12.40;99.30
57566;DHT22;63999;43.882;-0.310;2024-01-30T12:04:06;12.40;99.30
57566;DHT22;63999;43.882;-0.310;2024-01-30T12:06:38;12.40;99.30
57566;DHT22;63999;43.882;-0.310;2024-01-30T12:09:05;12.40;99.20
57566;DHT22;63999;43.882;-0.310;2024-01-30T12:11:48;12.30;99.30
57566;DHT22;63999;43.882;-0.310;2024-01-30T12:14:17;12.40;99.20
57566;DHT22;63999;43.882;-0.310;2024-01-30T12:16:47;12.40;99.20
57566;DHT22;63999;43.882;-0.310;2024-01-30T12:19:22;12.30;99.10
57566;DHT22;63999;43.882;-0.310;2024-01-30T12:21:57;12.30;99.10
57566;DHT22;63999;43.882;-0.310;2024-01-30T12:24:30;12.40;99.20
57566;DHT22;63999;43.882;-0.310;2024-01-30T12:26:58;12.40;99.30
57566;DHT22;63999;43.882;-0.310;2024-01-30T12:29:25;12.40;99.00
57566;DHT22;63999;43.882;-0.310;2024-01-30T12:32:00;12.50;99.10
57566;DHT22;63999;43.882;-0.310;2024-01-30T12:34:27;12.40;99.10
57566;DHT22;63999;43.882;-0.310;2024-01-30T12:36:54;12.40;99.10
57566;DHT22;63999;43.882;-0.310;2024-01-30T12:39:21;12.50;99.10
57566;DHT22;63999;43.882;-0.310;2024-01-30T12:41:48;12.50;99.10
57566;DHT22;63999;43.882;-0.310;2024-01-30T12:44:15;12.50;99.10
57566;DHT22;63999;43.882;-0.310;2024-01-30T12:46:42;12.50;99.10
57566;DHT22;63999;43.882;-0.310;2024-01-30T12:49:11;12.50;99.10
57566;DHT22;63999;43.882;-0.310;2024-01-30T12:51:39;12.50;99.20
57566;DHT22;63999;43.882;-0.310;2024-01-30T12:54:06;12.50;99.20
57566;DHT22;63999;43.882;-0.310;2024-01-30T12:56:33;12.50;99.10
57566;DHT22;63999;43.882;-0.310;2024-01-30T12:59:00;12.50;99.40
57566;DHT22;63999;43.882;-0.310;2024-01-30T13:01:28;12.50;99.60
57566;DHT22;63999;43.882;-0.310;2024-01-30T13:03:55;12.70;99.70
57566;DHT22;63999;43.882;-0.310;2024-01-30T13:06:24;12.70;99.90
57566;DHT22;63999;43.882;-0.310;2024-01-30T13:08:51;12.80;99.90
57566;DHT22;63999;43.882;-0.310;2024-01-30T13:11:18;12.80;99.70
57566;DHT22;63999;43.882;-0.310;2024-01-30T13:13:47;12.80;99.70
57566;DHT22;63999;43.882;-0.310;2024-01-30T13:16:15;12.80;99.80
57566;DHT22;63999;43.882;-0.310;2024-01-30T13:18:43;12.90;99.90
57566;DHT22;63999;43.882;-0.310;2024-01-30T13:21:10;12.90;99.90
57566;DHT22;63999;43.882;-0.310;2024-01-30T13:23:38;13.00;99.90
57566;DHT22;63999;43.882;-0.310;2024-01-30T13:26:05;13.00;99.80
57566;DHT22;63999;43.882;-0.310;2024-01-30T13:28:33;12.90;99.70
57566;DHT22;63999;43.882;-0.310;2024-01-30T13:31:00;12.90;99.60
57566;DHT22;63999;43.882;-0.310;2024-01-30T13:33:27;12.90;99.50
57566;DHT22;63999;43.882;-0.310;2024-01-30T13:35:55;12.90;99.50
57566;DHT22;63999;43.882;-0.310;2024-01-30T13:38:22;12.80;99.40
57566;DHT22;63999;43.882;-0.310;2024-01-30T13:40:49;12.80;99.50
57566;DHT22;63999;43.882;-0.310;2024-01-30T13:43:16;12.80;99.60
57566;DHT22;63999;43.882;-0.310;2024-01-30T13:45:44;12.90;99.90
57566;DHT22;63999;43.882;-0.310;2024-01-30T13:48:12;12.90;99.80
57566;DHT22;63999;43.882;-0.310;2024-01-30T13:50:40;13.00;99.70
57566;DHT22;63999;43.882;-0.310;2024-01-30T13:53:07;12.90;99.50
57566;DHT22;63999;43.882;-0.310;2024-01-30T13:55:35;12.90;99.10
57566;DHT22;63999;43.882;-0.310;2024-01-30T13:58:02;12.90;99.20
57566;DHT22;63999;43.882;-0.310;2024-01-30T14:00:29;12.90;99.70
57566;DHT22;63999;43.882;-0.310;2024-01-30T14:02:56;12.90;99.60
57566;DHT22;63999;43.882;-0.310;2024-01-30T14:05:25;13.00;99.70
57566;DHT22;63999;43.882;-0.310;2024-01-30T14:07:53;13.00;99.90
57566;DHT22;63999;43.882;-0.310;2024-01-30T14:10:21;13.10;99.90
57566;DHT22;63999;43.882;-0.310;2024-01-30T14:12:48;13.10;99.90
57566;DHT22;63999;43.882;-0.310;2024-01-30T14:15:15;13.20;99.90
57566;DHT22;63999;43.882;-0.310;2024-01-30T14:17:54;13.10;99.80
57566;DHT22;63999;43.882;-0.310;2024-01-30T14:20:22;13.10;99.70
57566;DHT22;63999;43.882;-0.310;2024-01-30T14:22:49;13.10;99.60
57566;DHT22;63999;43.882;-0.310;2024-01-30T14:25:16;13.10;99.80
57566;DHT22;63999;43.882;-0.310;2024-01-30T14:27:43;13.10;99.70
57566;DHT22;63999;43.882;-0.310;2024-01-30T14:30:11;13.10;99.90
57566;DHT22;63999;43.882;-0.310;2024-01-30T14:32:38;13.30;99.90
57566;DHT22;63999;43.882;-0.310;2024-01-30T14:35:07;13.20;99.80
57566;DHT22;63999;43.882;-0.310;2024-01-30T14:37:37;13.20;99.60
57566;DHT22;63999;43.882;-0.310;2024-01-30T14:40:04;13.20;99.80
57566;DHT22;63999;43.882;-0.310;2024-01-30T14:42:34;13.20;99.70
57566;DHT22;63999;43.882;-0.310;2024-01-30T14:45:03;13.20;99.90
57566;DHT22;63999;43.882;-0.310;2024-01-30T14:47:31;13.30;99.90
57566;DHT22;63999;43.882;-0.310;2024-01-30T14:49:58;13.30;99.90
57566;DHT22;63999;43.882;-0.310;2024-01-30T14:52:25;13.40;99.90
57566;DHT22;63999;43.882;-0.310;2024-01-30T14:54:52;13.40;99.90
57566;DHT22;63999;43.882;-0.310;2024-01-30T14:57:19;13.40;99.90
57566;DHT22;63999;43.882;-0.310;2024-01-30T14:59:46;13.40;99.90
57566;DHT22;63999;43.882;-0.310;2024-01-30T15:02:15;13.50;99.90
57566;DHT22;63999;43.882;-0.310;2024-01-30T15:04:42;13.50;99.90
57566;DHT22;63999;43.882;-0.310;2024-01-30T15:07:09;13.50;99.90
57566;DHT22;63999;43.882;-0.310;2024-01-30T15:09:38;13.50;99.90
57566;DHT22;63999;43.882;-0.310;2024-01-30T15:12:05;13.50;99.90
57566;DHT22;63999;43.882;-0.310;2024-01-30T15:14:32;13.50;99.90
57566;DHT22;63999;43.882;-0.310;2024-01-30T15:16:59;13.60;99.90
57566;DHT22;63999;43.882;-0.310;2024-01-30T15:19:27;13.50;99.90
57566;DHT22;63999;43.882;-0.310;2024-01-30T15:21:54;13.50;99.90